Time;durP1;ratioP1;P1;durP2;ratioP2;P2;SDS_P1;SDS_P2;PMS_P1;PMS_P2;Temp;Humidity;BMP_temperature;BMP_pressure;BME280_temperature;BME280_humidity;BME280_pressure;Samples;Min_cycle;Max_cycle;Signal;HPM_P1;HPM_P2
2022/10/17 00:01:11;;;;;;;9.70;7.33;;;14.70;44.10;;;;;;4980455;28;20480;-73
2022/10/17 00:03:40;;;;;;;11.50;7.20;;;14.70;43.90;;;;;;4985979;28;20816;-73
2022/10/17 00:06:09;;;;;;;10.67;7.30;;;14.70;43.60;;;;;;4981039;28;20896;-73
2022/10/17 00:08:37;;;;;;;10.40;7.40;;;14.70;43.60;;;;;;4980256;28;20469;-72
2022/10/17 00:11:06;;;;;;;10.10;7.20;;;14.70;43.40;;;;;;4979354;28;20993;-72
2022/10/17 00:13:34;;;;;;;15.77;8.50;;;14.70;43.70;;;;;;4986078;28;20484;-72
2022/10/17 00:16:01;;;;;;;11.77;7.87;;;14.70;43.50;;;;;;4976835;28;20472;-72
2022/10/17 00:18:28;;;;;;;10.60;7.00;;;14.60;43.30;;;;;;4982254;28;20479;-72
2022/10/17 00:20:56;;;;;;;11.77;6.20;;;14.60;43.30;;;;;;4981900;28;20477;-73
2022/10/17 00:23:26;;;;;;;11.37;7.70;;;14.60;43.10;;;;;;4981100;28;20983;-73
2022/10/17 00:25:59;;;;;;;14.97;6.30;;;14.60;43.00;;;;;;4982944;28;20893;-73
2022/10/17 00:28:26;;;;;;;13.37;6.37;;;14.50;42.90;;;;;;4985144;28;20473;-72
2022/10/17 00:30:56;;;;;;;11.43;6.30;;;14.50;42.80;;;;;;4982372;28;20480;-72
2022/10/17 00:33:24;;;;;;;7.80;5.00;;;14.50;42.70;;;;;;4984741;28;20531;-72
2022/10/17 00:35:50;;;;;;;11.60;5.43;;;14.40;42.00;;;;;;4981095;28;20463;-72
2022/10/17 00:38:19;;;;;;;11.30;6.20;;;14.40;42.60;;;;;;4977485;28;21049;-73
2022/10/17 00:40:45;;;;;;;7.93;5.60;;;14.40;41.80;;;;;;4983882;28;20492;-73
2022/10/17 00:43:16;;;;;;;11.23;6.33;;;14.40;41.70;;;;;;4986785;28;20464;-73
2022/10/17 00:45:43;;;;;;;12.13;6.50;;;14.30;41.40;;;;;;4981241;28;20469;-72
2022/10/17 00:48:12;;;;;;;8.37;5.47;;;14.20;41.30;;;;;;4989914;28;20476;-72
2022/10/17 00:50:44;;;;;;;11.37;6.10;;;14.20;41.40;;;;;;4986415;28;20491;-72
2022/10/17 00:53:11;;;;;;;9.80;5.70;;;14.20;41.40;;;;;;4987313;28;20460;-72
2022/10/17 00:55:48;;;;;;;10.53;5.20;;;14.20;41.40;;;;;;4993301;28;20516;-72
2022/10/17 00:58:15;;;;;;;8.00;5.03;;;14.10;42.20;;;;;;4990219;28;20461;-72
2022/10/17 01:00:44;;;;;;;8.70;5.27;;;14.10;41.30;;;;;;4981000;28;20476;-73
2022/10/17 01:03:11;;;;;;;10.87;4.80;;;14.10;41.20;;;;;;4980952;28;20540;-72
2022/10/17 01:05:38;;;;;;;8.73;5.43;;;14.00;40.90;;;;;;4978167;28;20480;-72
2022/10/17 01:08:06;;;;;;;7.30;4.57;;;14.00;40.80;;;;;;4985975;28;21249;-72
2022/10/17 01:10:41;;;;;;;9.27;4.70;;;13.90;40.60;;;;;;4987021;28;20492;-73
2022/10/17 01:13:13;;;;;;;7.93;5.20;;;13.80;40.40;;;;;;4991841;28;20845;-73
2022/10/17 01:15:57;;;;;;;9.00;5.43;;;13.80;40.30;;;;;;4988167;28;20503;-72
2022/10/17 01:18:35;;;;;;;12.60;4.90;;;13.70;40.30;;;;;;4989660;28;20465;-72
2022/10/17 01:21:33;;;;;;;7.40;3.87;;;13.70;40.40;;;;;;4982645;28;20479;-72
2022/10/17 01:24:27;;;;;;;9.53;4.77;;;13.60;40.30;;;;;;4982235;28;20460;-72
2022/10/17 01:27:13;;;;;;;15.13;4.70;;;13.60;40.30;;;;;;4983591;28;20464;-72
2022/10/17 01:29:59;;;;;;;11.30;4.50;;;13.50;40.10;;;;;;4983441;28;20492;-72
2022/10/17 01:32:35;;;;;;;6.70;4.00;;;13.50;40.20;;;;;;4983767;28;20482;-72
2022/10/17 01:35:09;;;;;;;7.60;4.23;;;13.40;40.10;;;;;;4985371;28;20499;-72
2022/10/17 01:37:44;;;;;;;9.90;3.77;;;13.40;39.90;;;;;;4986856;28;20464;-72
2022/10/17 01:40:17;;;;;;;7.90;4.27;;;13.40;39.70;;;;;;4985009;28;20491;-72
2022/10/17 01:42:51;;;;;;;6.03;4.10;;;13.30;39.70;;;;;;4987270;28;20461;-73
2022/10/17 01:45:23;;;;;;;8.30;4.40;;;13.30;39.70;;;;;;4986834;28;20461;-72
2022/10/17 01:47:53;;;;;;;13.57;5.50;;;13.30;39.80;;;;;;4988340;28;20471;-72
2022/10/17 01:50:25;;;;;;;7.17;3.90;;;13.20;39.80;;;;;;4985839;28;20484;-72
2022/10/17 01:52:54;;;;;;;10.47;5.20;;;13.20;39.80;;;;;;4987321;28;20531;-72
2022/10/17 01:55:26;;;;;;;10.80;4.63;;;13.20;39.80;;;;;;4983811;28;20820;-72
2022/10/17 01:57:57;;;;;;;7.70;4.10;;;13.10;40.50;;;;;;4978815;28;20457;-72
2022/10/17 02:00:27;;;;;;;7.80;4.27;;;13.10;39.90;;;;;;4985058;28;20481;-73
2022/10/17 02:02:59;;;;;;;6.80;3.73;;;13.10;39.50;;;;;;4986715;28;20472;-72
2022/10/17 02:05:32;;;;;;;12.87;4.70;;;13.00;39.60;;;;;;4986695;28;20572;-72
2022/10/17 02:07:59;;;;;;;7.73;4.40;;;12.90;39.60;;;;;;4987805;28;20457;-72
2022/10/17 02:10:39;;;;;;;9.47;4.53;;;12.90;39.70;;;;;;4987430;28;20483;-72
2022/10/17 02:13:12;;;;;;;13.97;4.77;;;12.90;40.10;;;;;;4974123;28;20453;-72
2022/10/17 02:16:14;;;;;;;8.10;4.20;;;12.90;40.10;;;;;;4983107;28;21324;-72
2022/10/17 02:19:02;;;;;;;12.60;4.80;;;12.90;40.50;;;;;;4982566;28;20479;-72
2022/10/17 02:21:35;;;;;;;9.80;4.60;;;12.90;40.50;;;;;;4981470;28;20495;-72
2022/10/17 02:24:11;;;;;;;7.30;4.70;;;12.90;40.30;;;;;;4977193;28;20462;-72
2022/10/17 02:26:44;;;;;;;8.40;4.47;;;12.90;40.90;;;;;;4986105;28;21135;-72
2022/10/17 02:29:17;;;;;;;10.40;4.57;;;12.90;42.20;;;;;;4979085;28;21157;-73
2022/10/17 02:31:48;;;;;;;8.73;4.67;;;13.00;42.10;;;;;;4979621;28;20477;-73
2022/10/17 02:34:20;;;;;;;7.40;4.20;;;13.10;42.80;;;;;;4978044;28;20493;-73
2022/10/17 02:36:52;;;;;;;11.00;4.53;;;13.10;42.90;;;;;;4981641;28;20499;-73
2022/10/17 02:39:22;;;;;;;7.03;4.07;;;13.10;42.60;;;;;;4980603;28;21016;-73
2022/10/17 02:41:50;;;;;;;9.80;5.07;;;13.10;42.50;;;;;;4979159;28;20543;-73
2022/10/17 02:44:19;;;;;;;12.53;5.03;;;13.10;42.50;;;;;;4981070;28;21026;-72
2022/10/17 02:46:52;;;;;;;9.60;4.50;;;13.00;42.30;;;;;;4978701;28;20468;-73
2022/10/17 02:49:22;;;;;;;8.77;4.10;;;13.00;42.20;;;;;;4985136;28;20483;-73
2022/10/17 02:51:56;;;;;;;10.47;4.70;;;13.00;42.10;;;;;;4984976;28;20986;-73
2022/10/17 02:54:33;;;;;;;9.60;4.20;;;13.00;42.30;;;;;;4983406;28;20507;-72
2022/10/17 02:57:04;;;;;;;8.63;3.87;;;13.00;42.20;;;;;;4985419;28;20472;-72
2022/10/17 02:59:33;;;;;;;10.20;3.80;;;13.00;41.90;;;;;;4982652;28;21020;-72
2022/10/17 03:02:03;;;;;;;7.70;3.93;;;13.00;41.80;;;;;;4984318;28;20996;-72
2022/10/17 03:04:31;;;;;;;7.77;4.33;;;12.90;41.70;;;;;;4989034;28;20479;-72
2022/10/17 03:06:58;;;;;;;10.00;4.50;;;12.90;41.60;;;;;;4989246;28;20460;-72
2022/10/17 03:09:25;;;;;;;11.93;5.93;;;12.80;41.40;;;;;;4986034;28;20483;-72
2022/10/17 03:11:52;;;;;;;7.90;4.37;;;12.80;41.40;;;;;;4982757;28;20457;-72
2022/10/17 03:14:19;;;;;;;6.53;4.43;;;12.80;41.40;;;;;;4983618;28;20474;-72
2022/10/17 03:16:45;;;;;;;7.67;4.13;;;12.70;41.40;;;;;;4981789;28;20469;-72
2022/10/17 03:19:12;;;;;;;8.17;4.70;;;12.70;41.40;;;;;;4984263;28;20461;-72
2022/10/17 03:21:40;;;;;;;7.53;4.13;;;12.80;41.60;;;;;;4985806;28;21040;-72
2022/10/17 03:24:07;;;;;;;9.40;5.00;;;12.80;41.50;;;;;;4987532;28;20807;-72
2022/10/17 03:26:34;;;;;;;6.83;3.97;;;12.70;41.30;;;;;;4983660;28;20475;-72
2022/10/17 03:29:01;;;;;;;9.60;3.90;;;12.70;41.30;;;;;;4983725;28;20467;-72
2022/10/17 03:31:28;;;;;;;8.50;4.50;;;12.70;41.50;;;;;;4981131;28;20461;-72
2022/10/17 03:33:55;;;;;;;10.70;4.83;;;12.70;41.10;;;;;;4985940;28;20469;-72
2022/10/17 03:36:22;;;;;;;9.37;4.23;;;12.70;41.00;;;;;;4985267;28;20479;-72
2022/10/17 03:38:54;;;;;;;8.57;4.40;;;12.60;41.00;;;;;;4986776;28;20471;-72
2022/10/17 03:41:21;;;;;;;12.93;3.97;;;12.60;41.10;;;;;;4988343;28;20463;-72
2022/10/17 03:43:48;;;;;;;6.80;3.80;;;12.50;40.80;;;;;;4983938;28;20472;-72
2022/10/17 03:46:14;;;;;;;9.50;4.80;;;12.50;40.80;;;;;;4979856;28;20463;-72
2022/10/17 03:48:41;;;;;;;8.10;5.10;;;12.50;40.80;;;;;;4988519;28;20457;-72
2022/10/17 03:51:10;;;;;;;6.53;3.50;;;12.40;40.70;;;;;;4983510;28;20476;-72
2022/10/17 03:53:36;;;;;;;9.73;4.80;;;12.40;40.70;;;;;;4983308;28;20803;-72
2022/10/17 03:56:16;;;;;;;8.57;4.27;;;12.40;40.70;;;;;;4984759;28;20864;-72
2022/10/17 03:58:43;;;;;;;5.97;4.10;;;12.30;40.90;;;;;;4983488;28;20456;-72
2022/10/17 04:01:12;;;;;;;12.87;5.43;;;12.30;40.70;;;;;;4978749;28;20495;-72
2022/10/17 04:03:39;;;;;;;9.50;4.37;;;12.30;40.70;;;;;;4983909;28;20472;-73
2022/10/17 04:06:07;;;;;;;7.47;4.50;;;12.30;40.90;;;;;;4980154;28;20480;-72
2022/10/17 04:08:34;;;;;;;9.10;4.73;;;12.20;40.80;;;;;;4982853;28;20475;-72
2022/10/17 04:11:02;;;;;;;10.10;4.67;;;12.20;40.80;;;;;;4978165;28;20492;-72
2022/10/17 04:13:32;;;;;;;9.20;4.37;;;12.20;40.80;;;;;;4976128;28;20464;-72
2022/10/17 04:16:00;;;;;;;8.77;4.60;;;12.20;40.90;;;;;;4985799;28;20578;-73
2022/10/17 04:18:28;;;;;;;11.63;4.73;;;12.20;41.30;;;;;;4973237;28;20474;-72
2022/10/17 04:20:54;;;;;;;10.30;5.50;;;12.20;41.70;;;;;;4977829;28;20587;-73
2022/10/17 04:23:22;;;;;;;15.50;4.40;;;12.20;41.50;;;;;;4977097;28;20464;-73
2022/10/17 04:25:49;;;;;;;10.90;4.77;;;12.20;41.50;;;;;;4981444;28;20470;-73
2022/10/17 04:28:15;;;;;;;7.73;4.30;;;12.20;41.70;;;;;;4984913;28;21252;-73
2022/10/17 04:30:44;;;;;;;9.53;5.17;;;12.20;41.90;;;;;;4979557;28;20469;-73
2022/10/17 04:33:11;;;;;;;13.77;4.13;;;12.20;41.90;;;;;;4981110;28;20464;-73
2022/10/17 04:35:38;;;;;;;10.20;4.90;;;12.30;42.60;;;;;;4974726;28;20496;-72
2022/10/17 04:38:05;;;;;;;12.63;5.37;;;12.30;42.40;;;;;;4982326;28;20878;-73
2022/10/17 04:40:31;;;;;;;11.03;4.80;;;12.30;42.60;;;;;;4985968;28;20484;-73
2022/10/17 04:42:59;;;;;;;11.50;5.00;;;12.30;42.90;;;;;;4984343;28;20457;-73
2022/10/17 04:45:25;;;;;;;9.23;5.00;;;12.30;42.80;;;;;;4981007;28;20456;-73
2022/10/17 04:47:54;;;;;;;7.40;4.40;;;12.20;42.60;;;;;;4981349;28;20456;-73
2022/10/17 04:50:20;;;;;;;13.00;4.40;;;12.20;42.50;;;;;;4981878;28;20485;-73
2022/10/17 04:52:48;;;;;;;10.73;5.10;;;12.20;42.50;;;;;;4982357;28;20466;-73
2022/10/17 04:55:14;;;;;;;7.60;4.37;;;12.20;42.40;;;;;;4978091;28;20485;-73
2022/10/17 04:57:42;;;;;;;11.90;4.87;;;12.10;42.20;;;;;;4981704;28;20472;-73
2022/10/17 05:00:10;;;;;;;9.13;4.40;;;12.10;42.00;;;;;;4983485;28;20488;-73
2022/10/17 05:02:36;;;;;;;9.60;4.30;;;12.00;41.70;;;;;;4980302;28;20493;-73
2022/10/17 05:05:06;;;;;;;9.73;4.30;;;12.00;41.70;;;;;;4979733;28;20475;-73
2022/10/17 05:07:32;;;;;;;7.27;3.67;;;12.00;41.70;;;;;;4987857;28;20470;-73
2022/10/17 05:09:59;;;;;;;11.43;4.40;;;12.00;41.40;;;;;;4977543;28;20477;-73
2022/10/17 05:12:26;;;;;;;11.20;4.00;;;11.90;41.40;;;;;;4977230;28;20479;-73
2022/10/17 05:14:53;;;;;;;7.33;3.43;;;11.90;41.30;;;;;;4973170;28;20854;-73
2022/10/17 05:17:20;;;;;;;7.30;3.70;;;11.90;41.30;;;;;;4987151;28;20475;-73
2022/10/17 05:19:47;;;;;;;7.03;4.10;;;11.90;41.30;;;;;;4970209;28;20867;-73
2022/10/17 05:22:15;;;;;;;9.17;4.20;;;11.90;41.30;;;;;;4976068;28;20472;-73
2022/10/17 05:24:42;;;;;;;8.57;4.80;;;11.90;41.30;;;;;;4987203;28;20472;-73
2022/10/17 05:27:09;;;;;;;8.60;5.47;;;11.90;41.30;;;;;;4978759;28;20816;-73
2022/10/17 05:29:36;;;;;;;6.70;4.10;;;11.90;41.40;;;;;;4977217;28;20572;-73
2022/10/17 05:32:04;;;;;;;8.00;4.30;;;11.90;41.50;;;;;;4978897;28;20962;-73
2022/10/17 05:34:33;;;;;;;8.70;4.50;;;11.90;41.40;;;;;;4979189;28;20564;-73
2022/10/17 05:37:00;;;;;;;10.53;4.80;;;11.80;41.50;;;;;;4984847;28;20481;-73
2022/10/17 05:39:29;;;;;;;16.23;5.07;;;11.80;41.30;;;;;;4972074;28;20496;-73
2022/10/17 05:41:56;;;;;;;8.53;4.70;;;11.80;41.40;;;;;;4983003;28;20503;-73
2022/10/17 05:44:23;;;;;;;6.10;3.20;;;11.80;41.30;;;;;;4979857;28;20460;-73
2022/10/17 05:46:50;;;;;;;6.23;3.23;;;11.80;41.30;;;;;;4990190;28;20471;-73
2022/10/17 05:49:17;;;;;;;6.50;3.17;;;11.70;41.30;;;;;;4983638;28;20472;-73
2022/10/17 05:51:44;;;;;;;9.20;3.73;;;11.80;41.50;;;;;;4984012;28;20954;-73
2022/10/17 05:54:12;;;;;;;9.27;4.83;;;11.80;41.70;;;;;;4981039;28;20475;-73
2022/10/17 05:56:40;;;;;;;15.67;4.87;;;11.90;42.20;;;;;;4980487;28;20610;-73
2022/10/17 05:59:07;;;;;;;11.50;4.63;;;11.90;42.00;;;;;;4980452;28;20785;-73
2022/10/17 06:01:34;;;;;;;8.13;4.10;;;12.00;42.40;;;;;;4981749;28;20499;-73
2022/10/17 06:04:01;;;;;;;16.20;5.33;;;12.10;41.40;;;;;;4980719;28;20480;-73
2022/10/17 06:06:29;;;;;;;7.57;4.33;;;12.20;40.90;;;;;;4979841;28;20528;-73
2022/10/17 06:08:55;;;;;;;8.20;4.27;;;12.30;40.70;;;;;;4975715;28;20520;-74
2022/10/17 06:11:22;;;;;;;8.20;4.40;;;12.50;40.70;;;;;;4978577;28;22700;-73
2022/10/17 06:13:50;;;;;;;10.33;4.40;;;12.60;40.10;;;;;;4978384;28;20465;-73
2022/10/17 06:16:18;;;;;;;10.80;5.40;;;12.70;40.20;;;;;;4981603;28;20483;-73
2022/10/17 06:18:44;;;;;;;9.53;3.83;;;12.90;39.40;;;;;;4981829;28;20565;-70
2022/10/17 06:21:14;;;;;;;7.13;3.77;;;13.20;39.00;;;;;;4985339;28;20488;-68
2022/10/17 06:23:41;;;;;;;7.07;3.83;;;13.40;39.10;;;;;;4985459;28;20473;-69
2022/10/17 06:26:08;;;;;;;9.67;4.20;;;13.70;38.60;;;;;;4980985;28;20472;-69
2022/10/17 06:28:36;;;;;;;9.20;4.43;;;14.30;37.60;;;;;;4974108;28;20471;-70
2022/10/17 06:31:06;;;;;;;7.83;3.87;;;15.00;36.00;;;;;;4972698;28;20511;-71
2022/10/17 06:33:35;;;;;;;12.40;4.20;;;16.00;33.90;;;;;;4980760;28;20471;-72
2022/10/17 06:36:03;;;;;;;7.27;3.87;;;17.00;31.30;;;;;;4978912;28;21112;-72
2022/10/17 06:38:30;;;;;;;9.37;3.70;;;17.80;28.60;;;;;;4977910;28;20844;-72
2022/10/17 06:41:03;;;;;;;8.90;3.50;;;18.30;25.70;;;;;;4988037;28;20480;-72
2022/10/17 06:43:30;;;;;;;9.23;4.07;;;18.80;23.20;;;;;;4979736;28;20530;-70
2022/10/17 06:45:57;;;;;;;16.77;3.90;;;18.90;22.50;;;;;;4985438;28;20468;-71
2022/10/17 06:48:25;;;;;;;6.97;3.23;;;19.00;21.90;;;;;;4990099;28;20456;-70
2022/10/17 06:50:52;;;;;;;6.83;3.33;;;19.00;21.60;;;;;;4983152;28;21040;-71
2022/10/17 06:53:20;;;;;;;6.60;3.33;;;19.00;21.50;;;;;;4986737;28;20502;-70
2022/10/17 06:55:52;;;;;;;6.80;3.53;;;19.10;21.20;;;;;;4976924;28;20914;-71
2022/10/17 06:58:25;;;;;;;8.27;3.80;;;19.10;21.10;;;;;;4981351;28;20465;-75
2022/10/17 07:00:52;;;;;;;13.27;3.53;;;19.20;20.80;;;;;;4984562;28;20535;-74
2022/10/17 07:03:19;;;;;;;5.90;2.80;;;19.40;21.30;;;;;;4976284;28;20483;-74
2022/10/17 07:05:53;;;;;;;5.43;2.80;;;19.50;21.60;;;;;;4978189;28;20468;-74
2022/10/17 07:08:20;;;;;;;5.93;3.50;;;19.70;21.40;;;;;;4977175;28;20555;-75
2022/10/17 07:10:47;;;;;;;9.57;3.17;;;19.80;20.70;;;;;;4983073;28;20492;-75
2022/10/17 07:13:15;;;;;;;8.13;3.00;;;19.80;19.90;;;;;;4987486;28;20468;-75
2022/10/17 07:15:42;;;;;;;7.20;3.20;;;19.90;19.80;;;;;;4983628;28;20484;-75
2022/10/17 07:18:10;;;;;;;9.90;3.67;;;20.10;19.30;;;;;;4980995;28;20528;-75
2022/10/17 07:20:37;;;;;;;7.10;3.47;;;20.20;18.50;;;;;;4983715;28;20488;-75
2022/10/17 07:23:06;;;;;;;6.63;3.77;;;20.60;17.60;;;;;;4981739;28;20464;-74
2022/10/17 07:25:34;;;;;;;6.50;3.67;;;21.20;16.70;;;;;;4984035;28;20539;-75
2022/10/17 07:28:01;;;;;;;8.30;3.80;;;21.60;15.70;;;;;;4977800;28;20472;-75
2022/10/17 07:30:28;;;;;;;7.03;3.30;;;21.60;15.20;;;;;;4977743;28;20480;-75
2022/10/17 07:32:55;;;;;;;8.90;3.27;;;21.50;15.70;;;;;;4981821;28;20532;-75
2022/10/17 07:35:22;;;;;;;8.93;3.77;;;21.60;15.10;;;;;;4981124;28;20529;-76
2022/10/17 07:37:49;;;;;;;8.13;3.90;;;21.80;15.10;;;;;;4979017;28;20517;-75
2022/10/17 07:40:18;;;;;;;7.73;4.13;;;22.20;14.90;;;;;;4976196;28;21274;-75
2022/10/17 07:42:45;;;;;;;8.40;3.97;;;22.80;14.10;;;;;;4984723;28;20500;-75
2022/10/17 07:45:12;;;;;;;6.60;3.53;;;23.70;12.90;;;;;;4980367;28;21825;-75
2022/10/17 07:47:39;;;;;;;7.20;3.50;;;24.40;11.30;;;;;;4986694;28;20555;-75
2022/10/17 07:50:07;;;;;;;7.10;3.90;;;25.30;9.70;;;;;;4979365;28;20493;-75
2022/10/17 07:52:34;;;;;;;4.80;2.97;;;26.20;8.50;;;;;;4983555;28;20472;-76
2022/10/17 07:55:01;;;;;;;6.90;2.87;;;26.80;7.70;;;;;;4983954;28;20465;-76
2022/10/17 07:57:30;;;;;;;6.33;3.63;;;27.50;6.00;;;;;;4978157;28;20587;-76
2022/10/17 07:59:57;;;;;;;6.40;3.07;;;28.50;5.00;;;;;;4974987;28;20488;-76
2022/10/17 08:02:26;;;;;;;9.70;3.90;;;29.50;3.50;;;;;;4975664;28;20847;-75
2022/10/17 08:04:53;;;;;;;6.10;3.13;;;30.50;2.00;;;;;;4975703;28;20477;-75
2022/10/17 08:07:20;;;;;;;8.53;3.10;;;31.60;1.00;;;;;;4981367;28;20493;-76
2022/10/17 08:09:48;;;;;;;5.80;3.63;;;32.10;1.00;;;;;;4978105;28;20492;-76
2022/10/17 08:12:15;;;;;;;5.40;3.47;;;32.70;1.00;;;;;;4978405;28;20961;-76
2022/10/17 08:14:44;;;;;;;7.40;3.60;;;33.70;1.00;;;;;;4979031;28;20480;-76
2022/10/17 08:17:11;;;;;;;10.53;3.10;;;34.70;1.00;;;;;;4978991;28;21101;-76
2022/10/17 08:19:39;;;;;;;5.37;2.97;;;35.60;1.00;;;;;;4978289;28;20491;-75
2022/10/17 08:22:06;;;;;;;11.00;3.00;;;36.60;1.00;;;;;;4976091;28;20501;-76
2022/10/17 08:24:33;;;;;;;5.80;3.30;;;37.20;1.00;;;;;;4979348;28;20527;-77
2022/10/17 08:27:00;;;;;;;10.27;2.83;;;37.70;1.00;;;;;;4983167;28;20468;-76
2022/10/17 08:29:29;;;;;;;8.50;3.03;;;38.30;1.00;;;;;;4980011;28;20492;-76
2022/10/17 08:31:57;;;;;;;8.20;3.33;;;39.10;1.00;;;;;;4980203;28;20556;-76
2022/10/17 08:34:24;;;;;;;7.17;3.07;;;39.80;1.00;;;;;;4983271;28;20880;-76
2022/10/17 08:36:51;;;;;;;5.20;2.70;;;40.50;1.00;;;;;;4977664;28;20993;-76
2022/10/17 08:39:18;;;;;;;6.33;3.30;;;41.00;1.00;;;;;;4983318;28;20996;-76
2022/10/17 08:41:56;;;;;;;10.13;3.40;;;41.50;1.00;;;;;;4983057;28;20552;-76
2022/10/17 08:44:34;;;;;;;7.60;3.20;;;42.20;1.00;;;;;;4981882;28;20813;-76
2022/10/17 08:47:11;;;;;;;7.60;2.80;;;42.70;1.00;;;;;;4983695;28;20929;-76
2022/10/17 08:49:45;;;;;;;4.63;2.10;;;43.00;1.00;;;;;;4976710;28;20980;-76
2022/10/17 08:52:20;;;;;;;6.90;3.20;;;43.00;1.00;;;;;;4980150;28;20468;-76
2022/10/17 08:54:48;;;;;;;9.50;2.80;;;42.50;1.00;;;;;;4979744;28;20467;-76
2022/10/17 08:57:17;;;;;;;8.27;3.07;;;42.50;1.00;;;;;;4979247;28;20477;-76
2022/10/17 08:59:45;;;;;;;8.40;2.80;;;42.70;1.00;;;;;;4976008;28;20497;-76
2022/10/17 09:02:31;;;;;;;8.63;3.07;;;42.70;1.00;;;;;;4981043;28;20584;-76
2022/10/17 09:05:24;;;;;;;6.50;2.80;;;42.70;1.00;;;;;;4979048;28;20479;-76
2022/10/17 09:08:01;;;;;;;6.10;2.30;;;42.80;1.00;;;;;;4978018;28;20465;-75
2022/10/17 09:10:36;;;;;;;10.27;3.00;;;42.90;1.00;;;;;;4981918;28;20484;-76
2022/10/17 09:13:19;;;;;;;6.57;2.20;;;43.10;1.00;;;;;;4981818;28;20460;-76
2022/10/17 09:16:01;;;;;;;7.40;2.53;;;43.10;1.00;;;;;;4981664;28;20457;-76
2022/10/17 09:18:33;;;;;;;5.70;3.27;;;42.30;1.00;;;;;;4985611;28;20464;-77
2022/10/17 09:21:15;;;;;;;9.50;3.50;;;41.40;1.00;;;;;;4981760;28;20494;-76
2022/10/17 09:23:51;;;;;;;8.70;3.00;;;41.60;1.00;;;;;;4986370;28;20477;-76
2022/10/17 09:26:18;;;;;;;7.93;3.03;;;41.80;1.00;;;;;;4986548;28;20472;-76
2022/10/17 09:28:52;;;;;;;9.27;3.07;;;41.30;1.00;;;;;;4983327;28;20472;-76
2022/10/17 09:31:22;;;;;;;11.63;3.50;;;40.50;1.00;;;;;;4983868;28;20469;-75
2022/10/17 09:33:52;;;;;;;7.47;2.83;;;39.70;1.00;;;;;;4981117;28;20596;-76
2022/10/17 09:36:21;;;;;;;10.63;3.37;;;38.70;1.00;;;;;;4986467;28;20468;-76
2022/10/17 09:38:53;;;;;;;8.90;3.37;;;37.80;1.00;;;;;;4982080;28;20822;-76
2022/10/17 09:41:23;;;;;;;11.87;3.40;;;37.40;1.00;;;;;;4983807;28;20453;-75
2022/10/17 09:43:54;;;;;;;7.17;3.20;;;37.30;1.00;;;;;;4982193;28;20473;-75
2022/10/17 09:46:27;;;;;;;8.90;3.07;;;37.10;1.00;;;;;;4981855;28;20497;-76
2022/10/17 09:49:02;;;;;;;6.57;3.00;;;37.00;1.00;;;;;;4988304;28;20472;-75
2022/10/17 09:51:30;;;;;;;6.80;2.80;;;36.50;1.00;;;;;;4987381;28;20538;-75
2022/10/17 09:54:03;;;;;;;7.00;3.27;;;36.40;1.00;;;;;;4990483;28;20457;-75
2022/10/17 09:56:30;;;;;;;8.03;3.30;;;36.20;1.00;;;;;;4977025;28;21004;-75
2022/10/17 09:58:58;;;;;;;5.73;2.77;;;35.80;1.00;;;;;;4984749;28;20465;-75
2022/10/17 10:01:27;;;;;;;6.30;3.10;;;35.20;1.00;;;;;;4983315;28;20495;-75
2022/10/17 10:04:13;;;;;;;5.67;2.67;;;34.50;1.00;;;;;;4988630;28;20527;-75
2022/10/17 10:06:42;;;;;;;5.63;2.73;;;33.80;1.00;;;;;;4983767;28;20465;-75
2022/10/17 10:09:22;;;;;;;8.53;3.00;;;33.20;1.00;;;;;;4977168;28;20464;-76
2022/10/17 10:11:51;;;;;;;7.90;3.00;;;32.60;1.00;;;;;;4983887;28;20456;-75
2022/10/17 10:14:22;;;;;;;9.73;2.93;;;32.10;1.00;;;;;;4983569;28;20530;-75
2022/10/17 10:16:52;;;;;;;10.13;2.93;;;31.60;1.00;;;;;;4988329;28;20468;-74
2022/10/17 10:19:30;;;;;;;5.70;3.40;;;31.20;1.00;;;;;;4979097;28;21005;-75
2022/10/17 10:21:58;;;;;;;5.23;2.50;;;31.00;1.00;;;;;;4986897;28;21043;-76
2022/10/17 10:24:26;;;;;;;5.27;2.83;;;30.90;1.00;;;;;;4984469;28;20479;-75
2022/10/17 10:26:55;;;;;;;5.70;2.70;;;30.80;1.00;;;;;;4974212;28;20464;-75
2022/10/17 10:29:29;;;;;;;4.60;2.40;;;30.70;1.00;;;;;;4976077;28;20485;-75
2022/10/17 10:31:58;;;;;;;5.63;2.77;;;30.50;1.20;;;;;;4977950;28;20479;-75
2022/10/17 10:34:28;;;;;;;6.00;2.37;;;30.30;1.80;;;;;;4980276;28;20490;-75
2022/10/17 10:37:00;;;;;;;7.53;2.97;;;30.20;1.80;;;;;;4977045;28;20927;-75
2022/10/17 10:39:40;;;;;;;5.90;3.17;;;30.20;1.90;;;;;;4983417;28;20911;-75
2022/10/17 10:42:20;;;;;;;8.00;3.03;;;30.20;2.10;;;;;;4976446;28;20970;-75
2022/10/17 10:44:47;;;;;;;6.63;2.63;;;30.30;2.70;;;;;;4988529;28;20467;-75
2022/10/17 10:47:18;;;;;;;5.70;2.60;;;30.40;3.00;;;;;;4988459;28;20469;-76
2022/10/17 10:49:48;;;;;;;5.27;2.97;;;30.50;2.60;;;;;;4974833;28;20929;-75
2022/10/17 10:52:32;;;;;;;11.37;3.07;;;30.40;2.70;;;;;;4986116;28;20480;-75
2022/10/17 10:55:22;;;;;;;6.50;2.70;;;30.30;2.80;;;;;;4988996;28;20461;-75
2022/10/17 10:57:53;;;;;;;4.60;2.40;;;30.30;2.40;;;;;;4978844;28;20493;-75
2022/10/17 11:00:24;;;;;;;5.10;2.37;;;30.50;2.60;;;;;;4986468;28;20523;-75
2022/10/17 11:02:59;;;;;;;6.03;2.50;;;30.90;1.90;;;;;;4980549;28;20589;-75
2022/10/17 11:05:42;;;;;;;5.43;2.50;;;31.30;1.50;;;;;;4980485;28;20472;-75
2022/10/17 11:08:19;;;;;;;5.43;2.50;;;31.60;1.00;;;;;;4978141;28;20458;-75
2022/10/17 11:11:07;;;;;;;8.20;2.43;;;31.80;1.00;;;;;;4975769;28;20485;-75
2022/10/17 11:13:43;;;;;;;5.70;2.30;;;32.00;1.00;;;;;;4976900;28;20830;-72
2022/10/17 11:16:21;;;;;;;10.87;2.37;;;32.30;1.00;;;;;;4982979;28;20460;-75
2022/10/17 11:18:53;;;;;;;5.87;2.10;;;32.70;1.00;;;;;;4982918;28;20484;-75
2022/10/17 11:21:33;;;;;;;7.87;2.17;;;32.90;1.00;;;;;;4980805;28;20576;-75
2022/10/17 11:24:12;;;;;;;6.63;2.40;;;32.70;1.00;;;;;;4970236;28;20562;-75
2022/10/17 11:26:54;;;;;;;6.70;2.27;;;32.30;1.00;;;;;;4975725;28;20465;-75
2022/10/17 11:29:26;;;;;;;5.97;2.13;;;32.30;1.00;;;;;;4976439;28;20568;-75
2022/10/17 11:31:59;;;;;;;6.70;2.10;;;32.20;1.00;;;;;;4977688;28;20501;-74
2022/10/17 11:34:29;;;;;;;8.20;2.17;;;32.00;1.00;;;;;;4983786;28;20480;-74
2022/10/17 11:37:04;;;;;;;8.63;2.00;;;31.80;1.00;;;;;;4973600;28;20464;-73
2022/10/17 11:39:52;;;;;;;5.00;1.90;;;31.80;1.00;;;;;;4969514;28;20487;-74
2022/10/17 11:45:15;;;;;;;5.97;2.13;;;32.50;1.00;;;;;;4977409;28;20449;-74
2022/10/17 11:47:47;;;;;;;5.93;2.20;;;32.90;1.00;;;;;;4989224;28;20460;-74
2022/10/17 11:50:23;;;;;;;6.00;2.03;;;33.00;1.00;;;;;;4975702;28;20570;-74
2022/10/17 11:52:56;;;;;;;5.00;2.37;;;33.10;1.00;;;;;;4976280;28;20472;-74
2022/10/17 11:55:26;;;;;;;4.67;1.97;;;33.10;1.00;;;;;;4975793;28;20660;-75
2022/10/17 11:58:12;;;;;;;5.87;2.23;;;33.00;1.00;;;;;;4986049;28;21015;-75
2022/10/17 12:00:53;;;;;;;3.70;1.70;;;32.80;1.00;;;;;;4979555;28;20985;-75
2022/10/17 12:03:33;;;;;;;5.27;1.70;;;32.50;1.00;;;;;;4967413;28;20465;-76
2022/10/17 12:06:15;;;;;;;4.47;1.83;;;32.30;1.00;;;;;;4979667;28;20464;-75
2022/10/17 12:08:51;;;;;;;8.60;2.17;;;32.20;1.00;;;;;;4976733;28;20465;-75
2022/10/17 12:11:34;;;;;;;5.00;1.87;;;31.80;1.00;;;;;;4972364;28;21160;-75
2022/10/17 12:14:02;;;;;;;6.00;1.90;;;31.40;1.00;;;;;;4982035;28;20465;-75
2022/10/17 12:16:50;;;;;;;6.60;2.47;;;31.20;1.00;;;;;;4980348;28;20479;-75
2022/10/17 12:19:34;;;;;;;4.23;1.93;;;31.10;1.10;;;;;;4981900;28;20488;-75
2022/10/17 12:22:17;;;;;;;4.13;2.10;;;31.20;1.00;;;;;;4986795;28;20471;-75
2022/10/17 12:24:53;;;;;;;6.03;2.37;;;31.20;1.00;;;;;;4978834;28;20903;-75
2022/10/17 12:27:38;;;;;;;4.40;2.17;;;31.00;1.10;;;;;;4979855;28;20479;-75
2022/10/17 12:30:16;;;;;;;6.30;2.60;;;30.80;1.00;;;;;;4973222;28;20480;-75
2022/10/17 12:33:04;;;;;;;4.47;1.77;;;30.40;2.60;;;;;;4979556;28;20536;-75
2022/10/17 12:35:32;;;;;;;4.97;1.93;;;30.00;3.20;;;;;;4975079;28;20938;-75
2022/10/17 12:38:28;;;;;;;4.83;2.00;;;29.60;3.70;;;;;;4976878;28;20586;-75
2022/10/17 12:41:02;;;;;;;4.83;2.30;;;29.20;4.80;;;;;;4980288;28;20656;-75
2022/10/17 12:43:47;;;;;;;5.70;2.30;;;28.80;4.30;;;;;;4974325;28;20479;-75
2022/10/17 12:46:46;;;;;;;6.63;1.97;;;28.50;4.70;;;;;;4979836;28;20459;-75
2022/10/17 12:49:42;;;;;;;5.00;2.00;;;28.20;5.30;;;;;;4982315;28;20466;-75
2022/10/17 12:52:19;;;;;;;5.40;1.90;;;28.00;6.20;;;;;;4975917;28;20462;-75
2022/10/17 12:54:50;;;;;;;4.63;2.10;;;27.80;6.70;;;;;;4982615;28;20457;-75
2022/10/17 12:57:23;;;;;;;6.60;2.50;;;27.70;7.20;;;;;;4981618;28;20468;-75
2022/10/17 12:59:50;;;;;;;4.37;2.10;;;27.50;7.20;;;;;;4982925;28;20496;-75
2022/10/17 13:02:21;;;;;;;5.30;2.23;;;27.30;7.00;;;;;;4979693;28;20507;-75
2022/10/17 13:04:50;;;;;;;6.00;2.00;;;27.20;7.90;;;;;;4977494;28;20503;-75
2022/10/17 13:07:21;;;;;;;5.20;2.40;;;27.00;8.60;;;;;;4974510;28;20461;-75
2022/10/17 13:09:49;;;;;;;5.63;2.83;;;26.90;8.30;;;;;;4979821;28;20488;-74
2022/10/17 13:12:22;;;;;;;4.50;2.60;;;26.70;8.20;;;;;;4977578;28;20453;-75